createdAt,value
2023-04-02T00:00:20.586Z,93523.44
2023-04-02T00:03:22.907Z,93525.25
2023-04-02T00:05:51.579Z,93527.78
2023-04-02T00:08:28.708Z,93519.44
2023-04-02T00:10:59.547Z,93522.38
2023-04-02T00:13:36.918Z,93529.00
2023-04-02T00:16:08.572Z,93517.53
2023-04-02T00:18:45.327Z,93522.16
2023-04-02T00:21:25.947Z,93517.34
2023-04-02T00:23:57.340Z,93517.72
2023-04-02T00:26:52.395Z,93519.28
2023-04-02T00:29:21.278Z,93510.75
2023-04-02T00:31:52.449Z,93509.19
2023-04-02T00:34:28.896Z,93513.88
2023-04-02T00:36:58.352Z,93513.88
2023-04-02T00:39:31.665Z,93498.31
2023-04-02T00:42:05.888Z,93506.38
2023-04-02T00:44:38.586Z,93515.28
2023-04-02T00:47:15.582Z,93509.53
2023-04-02T00:49:46.147Z,93506.50
2023-04-02T00:52:18.188Z,93505.22
2023-04-02T00:54:52.194Z,93510.91
2023-04-02T00:57:25.919Z,93507.81
2023-04-02T01:00:00.882Z,93510.50
2023-04-02T01:02:35.890Z,93502.94
2023-04-02T01:05:24.278Z,93514.94
2023-04-02T01:08:09.120Z,93521.97
2023-04-02T01:11:00.696Z,93508.94
2023-04-02T01:13:37.938Z,93515.66
2023-04-02T01:16:19.349Z,93516.91
2023-04-02T01:19:02.001Z,93517.41
2023-04-02T01:21:47.336Z,93526.22
2023-04-02T01:24:16.767Z,93530.34
2023-04-02T01:26:55.645Z,93521.47
2023-04-02T01:29:29.981Z,93539.22
2023-04-02T01:32:04.847Z,93539.16
2023-04-02T01:34:34.798Z,93530.34
2023-04-02T01:37:40.637Z,93530.31
2023-04-02T01:40:32.039Z,93535.72
2023-04-02T01:43:17.136Z,93520.63
2023-04-02T01:45:47.343Z,93520.94
2023-04-02T01:48:20.006Z,93515.16
2023-04-02T01:50:52.719Z,93514.22
2023-04-02T01:53:24.855Z,93515.06
2023-04-02T01:56:18.165Z,93511.41
2023-04-02T01:58:49.364Z,93509.59
2023-04-02T02:01:22.892Z,93505.09
2023-04-02T02:03:52.669Z,93512.19
2023-04-02T02:06:21.776Z,93506.94
2023-04-02T02:08:55.910Z,93505.13
2023-04-02T02:11:29.497Z,93505.38
2023-04-02T02:14:14.238Z,93512.59
2023-04-02T02:17:13.545Z,93506.22
2023-04-02T02:19:46.797Z,93507.88
2023-04-02T02:22:45.391Z,93506.75
2023-04-02T02:25:19.511Z,93510.91
2023-04-02T02:28:00.788Z,93511.44
2023-04-02T02:30:34.094Z,93505.75
2023-04-02T02:33:10.121Z,93513.06
2023-04-02T02:35:46.389Z,93511.84
2023-04-02T02:38:49.146Z,93517.88
2023-04-02T02:41:27.361Z,93518.84
2023-04-02T02:44:03.652Z,93512.03
2023-04-02T02:46:33.639Z,93511.63
2023-04-02T02:49:06.161Z,93518.03
2023-04-02T02:51:45.510Z,93525.31
2023-04-02T02:54:16.429Z,93520.63
2023-04-02T02:56:54.199Z,93510.06
2023-04-02T02:59:24.342Z,93519.25
2023-04-02T03:01:54.598Z,93521.09
2023-04-02T03:04:26.240Z,93518.81
2023-04-02T03:06:58.121Z,93520.97
2023-04-02T03:09:43.793Z,93517.56
2023-04-02T03:12:36.127Z,93510.88
2023-04-02T03:15:18.041Z,93513.28
2023-04-02T03:17:56.426Z,93511.75
2023-04-02T03:20:35.016Z,93511.94
2023-04-02T03:23:13.947Z,93511.94
2023-04-02T03:25:50.607Z,93512.19
2023-04-02T03:29:00.848Z,93507.38
2023-04-02T03:31:36.259Z,93503.72
2023-04-02T03:34:14.624Z,93520.34
2023-04-02T03:36:53.631Z,93508.31
2023-04-02T03:39:41.859Z,93520.69
2023-04-02T03:42:21.001Z,93526.09
2023-04-02T03:44:56.251Z,93530.03
2023-04-02T03:47:34.907Z,93521.16
2023-04-02T03:50:08.653Z,93524.81
2023-04-02T03:52:40.344Z,93523.97
2023-04-02T03:55:16.322Z,93519.81
2023-04-02T03:57:57.951Z,93529.91
2023-04-02T04:00:35.652Z,93509.38
2023-04-02T04:03:12.852Z,93525.78
2023-04-02T04:05:51.856Z,93519.56
2023-04-02T04:08:26.453Z,93521.97
2023-04-02T04:10:59.931Z,93528.75
2023-04-02T04:13:37.988Z,93533.16
2023-04-02T04:16:11.723Z,93527.75
2023-04-02T04:18:49.150Z,93528.84
2023-04-02T04:21:30.089Z,93538.47
2023-04-02T04:24:05.893Z,93542.31
2023-04-02T04:26:43.580Z,93542.81
2023-04-02T04:29:32.531Z,93553.78
2023-04-02T04:32:18.778Z,93548.56
2023-04-02T04:34:53.320Z,93548.06
2023-04-02T04:37:29.197Z,93552.69
2023-04-02T04:40:23.850Z,93541.34
2023-04-02T04:42:59.023Z,93544.03
2023-04-02T04:45:44.672Z,93553.13
2023-04-02T04:48:21.715Z,93545.88
2023-04-02T04:50:56.346Z,93545.69
2023-04-02T04:53:28.610Z,93550.59
2023-04-02T04:56:15.892Z,93550.75
2023-04-02T04:58:54.989Z,93547.19
2023-04-02T05:01:29.900Z,93544.41
2023-04-02T05:04:08.419Z,93553.88
2023-04-02T05:06:43.789Z,93546.56
2023-04-02T05:09:21.186Z,93546.31
2023-04-02T05:12:03.257Z,93540.63
2023-04-02T05:14:39.849Z,93555.28
2023-04-02T05:17:15.754Z,93563.97
2023-04-02T05:19:52.685Z,93559.09
2023-04-02T05:22:32.170Z,93563.31
2023-04-02T05:25:16.706Z,93559.44
2023-04-02T05:27:58.143Z,93561.03
2023-04-02T05:30:49.409Z,93558.66
2023-04-02T05:33:48.910Z,93557.91
2023-04-02T05:36:24.243Z,93566.50
2023-04-02T05:38:56.413Z,93575.41
2023-04-02T05:41:31.252Z,93569.63
2023-04-02T05:44:10.408Z,93579.59
2023-04-02T05:46:50.344Z,93577.78
2023-04-02T05:49:29.367Z,93582.75
2023-04-02T05:52:04.708Z,93580.16
2023-04-02T05:54:41.104Z,93594.78
2023-04-02T05:57:16.192Z,93593.19
2023-04-02T05:59:54.022Z,93591.09
2023-04-02T06:02:30.941Z,93582.47
2023-04-02T06:05:06.705Z,93587.66
2023-04-02T06:07:45.177Z,93584.22
2023-04-02T06:10:22.843Z,93589.44
2023-04-02T06:13:08.868Z,93594.88
2023-04-02T06:15:40.073Z,93588.47
2023-04-02T06:18:17.517Z,93594.66
2023-04-02T06:20:46.490Z,93589.28
2023-04-02T06:23:21.952Z,93600.19
2023-04-02T06:25:59.200Z,93590.41
2023-04-02T06:28:35.919Z,93589.25
2023-04-02T06:31:19.946Z,93586.59
2023-04-02T06:33:54.741Z,93586.06
2023-04-02T06:36:24.755Z,93581.16
2023-04-02T06:38:57.127Z,93587.84
2023-04-02T06:41:26.541Z,93574.94
2023-04-02T06:44:00.342Z,93589.28
2023-04-02T06:46:35.765Z,93606.16
2023-04-02T06:49:18.849Z,93590.06
2023-04-02T06:51:50.580Z,93581.34
2023-04-02T06:54:20.069Z,93585.81
2023-04-02T06:56:52.029Z,93594.81
2023-04-02T06:59:21.303Z,93597.13
2023-04-02T07:01:57.184Z,93596.94
2023-04-02T07:04:26.238Z,93602.53
2023-04-02T07:06:54.880Z,93603.38
2023-04-02T07:09:42.408Z,93608.16
2023-04-02T07:12:13.910Z,93604.25
2023-04-02T07:14:42.407Z,93611.44
2023-04-02T07:17:17.830Z,93606.09
2023-04-02T07:19:49.613Z,93606.00
2023-04-02T07:22:43.060Z,93613.69
2023-04-02T07:25:12.492Z,93616.09
2023-04-02T07:27:41.320Z,93608.75
2023-04-02T07:30:11.085Z,93617.06
2023-04-02T07:32:41.325Z,93615.16
2023-04-02T07:35:11.462Z,93611.44
2023-04-02T07:37:40.408Z,93614.19
2023-04-02T07:40:18.317Z,93611.69
2023-04-02T07:42:46.800Z,93619.31
2023-04-02T07:45:16.143Z,93624.03
2023-04-02T07:47:46.497Z,93621.16
2023-04-02T07:50:15.019Z,93633.75
2023-04-02T07:52:44.681Z,93631.41
2023-04-02T07:55:16.265Z,93625.44
2023-04-02T07:57:51.543Z,93628.25
2023-04-02T08:00:21.585Z,93631.19
2023-04-02T08:02:52.876Z,93630.97
2023-04-02T08:05:22.546Z,93628.44
2023-04-02T08:07:55.684Z,93632.13
2023-04-02T08:10:25.650Z,93620.38
2023-04-02T08:12:54.163Z,93628.59
2023-04-02T08:15:22.707Z,93632.59
2023-04-02T08:17:53.650Z,93635.97
2023-04-02T08:20:24.671Z,93630.91
2023-04-02T08:22:53.231Z,93640.59
2023-04-02T08:25:21.727Z,93641.84
2023-04-02T08:27:51.015Z,93635.88
2023-04-02T08:30:20.712Z,93638.22
2023-04-02T08:32:49.365Z,93635.88
2023-04-02T08:35:19.666Z,93638.53
2023-04-02T08:37:48.112Z,93639.75
2023-04-02T08:40:27.625Z,93641.50
2023-04-02T08:43:57.558Z,93637.56
2023-04-02T08:46:33.377Z,93634.28
2023-04-02T08:49:12.502Z,93631.75
2023-04-02T08:51:42.739Z,93628.09
2023-04-02T08:54:21.654Z,93630.09
2023-04-02T08:56:57.685Z,93634.72
2023-04-02T08:59:37.558Z,93632.47
2023-04-02T09:02:56.412Z,93637.09
2023-04-02T09:05:30.724Z,93638.06
2023-04-02T09:08:05.132Z,93634.47
2023-04-02T09:10:41.756Z,93635.22
2023-04-02T09:13:23.873Z,93637.66
2023-04-02T09:15:59.833Z,93642.38
2023-04-02T09:18:31.955Z,93640.69
2023-04-02T09:21:04.977Z,93642.75
2023-04-02T09:23:59.286Z,93647.50
2023-04-02T09:26:32.123Z,93646.16
2023-04-02T09:29:25.836Z,93639.78
2023-04-02T09:32:08.713Z,93625.25
2023-04-02T09:34:38.188Z,93628.00
2023-04-02T09:37:15.200Z,93622.47
2023-04-02T09:39:45.204Z,93611.03
2023-04-02T09:42:34.155Z,93609.53
2023-04-02T09:45:21.963Z,93617.34
2023-04-02T09:47:53.165Z,93619.69
2023-04-02T09:50:30.043Z,93611.59
2023-04-02T09:52:59.324Z,93622.78
2023-04-02T09:55:31.233Z,93602.06
2023-04-02T09:58:18.612Z,93603.81
2023-04-02T10:00:55.249Z,93606.66
2023-04-02T10:03:37.220Z,93613.84
2023-04-02T10:06:09.645Z,93613.28
2023-04-02T10:08:40.853Z,93606.22
2023-04-02T10:11:16.792Z,93608.31
2023-04-02T10:13:55.422Z,93602.41
2023-04-02T10:16:33.124Z,93602.19
2023-04-02T10:19:08.728Z,93602.06
2023-04-02T10:21:41.535Z,93592.59
2023-04-02T10:24:14.675Z,93598.06
2023-04-02T10:27:17.473Z,93597.47
2023-04-02T10:30:10.405Z,93588.25
2023-04-02T10:32:47.666Z,93599.19
2023-04-02T10:35:29.759Z,93587.16
2023-04-02T10:38:29.059Z,93590.09
2023-04-02T10:41:02.350Z,93587.31
2023-04-02T10:44:26.942Z,93598.91
2023-04-02T10:47:14.864Z,93599.09
2023-04-02T10:49:51.299Z,93587.31
2023-04-02T10:52:27.775Z,93577.44
2023-04-02T10:54:59.429Z,93579.94
2023-04-02T10:57:38.069Z,93569.00
2023-04-02T11:00:22.349Z,93575.41
2023-04-02T11:02:57.871Z,93575.06
2023-04-02T11:05:43.930Z,93566.22
2023-04-02T11:08:20.269Z,93578.97
2023-04-02T11:10:54.197Z,93581.75
2023-04-02T11:13:29.682Z,93583.38
2023-04-02T11:15:59.628Z,93572.00
2023-04-02T11:18:34.309Z,93566.44
2023-04-02T11:21:08.648Z,93568.44
2023-04-02T11:23:54.925Z,93565.03
2023-04-02T11:26:51.200Z,93561.19
2023-04-02T11:29:28.048Z,93572.72
2023-04-02T11:32:34.577Z,93580.59
2023-04-02T11:35:39.266Z,93559.09
2023-04-02T11:38:52.888Z,93554.59
2023-04-02T11:42:03.094Z,93557.47
2023-04-02T11:44:31.566Z,93557.00
2023-04-02T11:47:21.228Z,93548.94
2023-04-02T11:50:05.331Z,93546.28
2023-04-02T11:52:53.191Z,93550.09
2023-04-02T11:55:32.092Z,93534.03
2023-04-02T11:58:37.973Z,93539.00
2023-04-02T12:01:45.987Z,93544.09
2023-04-02T12:05:10.453Z,93555.84
2023-04-02T12:08:24.567Z,93548.53
2023-04-02T12:11:00.480Z,93549.59
2023-04-02T12:13:52.861Z,93550.41
2023-04-02T12:16:31.350Z,93537.66
2023-04-02T12:19:01.176Z,93535.75
2023-04-02T12:21:30.873Z,93542.78
2023-04-02T12:24:01.932Z,93549.25
2023-04-02T12:26:38.415Z,93546.63
2023-04-02T12:29:26.946Z,93547.22
2023-04-02T12:31:57.336Z,93541.94
2023-04-02T12:34:28.896Z,93545.91
2023-04-02T12:37:02.653Z,93531.72
2023-04-02T12:39:34.525Z,93532.22
2023-04-02T12:42:03.094Z,93529.75
2023-04-02T12:44:32.845Z,93525.19
2023-04-02T12:47:01.499Z,93532.91
2023-04-02T12:49:37.778Z,93517.97
2023-04-02T12:52:10.211Z,93518.97
2023-04-02T12:54:47.907Z,93520.66
2023-04-02T12:57:41.134Z,93509.78
2023-04-02T13:00:39.306Z,93523.03
2023-04-02T13:03:21.369Z,93524.59
2023-04-02T13:05:56.264Z,93510.41
2023-04-02T13:08:29.046Z,93521.03
2023-04-02T13:11:02.261Z,93518.94
2023-04-02T13:13:36.127Z,93511.00
2023-04-02T13:16:27.820Z,93515.66
2023-04-02T13:19:21.699Z,93508.03
2023-04-02T13:21:51.842Z,93509.47
2023-04-02T13:24:22.303Z,93501.34
2023-04-02T13:26:56.429Z,93498.41
2023-04-02T13:29:30.406Z,93498.56
2023-04-02T13:32:01.482Z,93497.00
2023-04-02T13:34:31.009Z,93497.47
2023-04-02T13:36:59.920Z,93494.03
2023-04-02T13:39:30.313Z,93495.75
2023-04-02T13:42:03.798Z,93492.94
2023-04-02T13:44:35.748Z,93491.88
2023-04-02T13:47:04.677Z,93489.03
2023-04-02T13:49:33.442Z,93496.53
2023-04-02T13:52:05.123Z,93489.53
2023-04-02T13:54:48.847Z,93493.25
2023-04-02T13:57:19.147Z,93486.88
2023-04-02T13:59:47.667Z,93489.22
2023-04-02T14:02:20.066Z,93482.94
2023-04-02T14:04:56.111Z,93491.69
2023-04-02T14:07:51.646Z,93493.38
2023-04-02T14:10:37.249Z,93481.03
2023-04-02T14:13:35.713Z,93485.28
2023-04-02T14:16:21.434Z,93481.19
2023-04-02T14:19:14.045Z,93466.09
2023-04-02T14:21:59.249Z,93474.84
2023-04-02T14:24:41.611Z,93467.50
2023-04-02T14:27:41.685Z,93473.13
2023-04-02T14:30:22.892Z,93472.22
2023-04-02T14:33:01.475Z,93465.78
2023-04-02T14:35:36.339Z,93463.66
2023-04-02T14:38:16.956Z,93474.69
2023-04-02T14:40:51.527Z,93470.66
2023-04-02T14:43:27.681Z,93473.94
2023-04-02T14:46:02.247Z,93474.69
2023-04-02T14:48:54.388Z,93471.91
2023-04-02T14:51:32.171Z,93479.72
2023-04-02T14:54:12.259Z,93477.81
2023-04-02T14:56:48.601Z,93474.53
2023-04-02T14:59:36.559Z,93485.59
2023-04-02T15:02:39.389Z,93479.38
2023-04-02T15:05:18.493Z,93478.91
2023-04-02T15:07:54.836Z,93485.59
2023-04-02T15:10:30.069Z,93480.28
2023-04-02T15:13:01.793Z,93499.31
2023-04-02T15:15:42.632Z,93503.44
2023-04-02T15:18:16.311Z,93490.75
2023-04-02T15:20:58.437Z,93485.84
2023-04-02T15:23:51.071Z,93497.88
2023-04-02T15:26:27.220Z,93495.03
2023-04-02T15:29:15.884Z,93504.13
2023-04-02T15:31:52.907Z,93504.59
2023-04-02T15:34:33.160Z,93502.91
2023-04-02T15:37:20.955Z,93505.59
2023-04-02T15:40:28.196Z,93494.41
2023-04-02T15:43:12.028Z,93501.66
2023-04-02T15:45:52.568Z,93509.25
2023-04-02T15:48:43.398Z,93503.00
2023-04-02T15:52:02.316Z,93508.66
2023-04-02T15:54:56.976Z,93505.94
2023-04-02T15:57:53.202Z,93506.13
2023-04-02T16:00:27.986Z,93506.66
2023-04-02T16:03:41.812Z,93516.56
2023-04-02T16:06:26.848Z,93521.59
2023-04-02T16:09:11.419Z,93518.69
2023-04-02T16:11:40.375Z,93514.00
2023-04-02T16:14:25.244Z,93519.19
2023-04-02T16:16:57.092Z,93528.59
2023-04-02T16:19:35.536Z,93517.44
2023-04-02T16:22:13.269Z,93521.56
2023-04-02T16:24:41.770Z,93527.34
2023-04-02T16:27:28.853Z,93523.00
2023-04-02T16:30:30.619Z,93522.41
2023-04-02T16:33:18.556Z,93520.81
2023-04-02T16:36:00.856Z,93534.47
2023-04-02T16:38:54.766Z,93532.31
2023-04-02T16:41:39.376Z,93537.84
2023-04-02T16:44:27.387Z,93543.78
2023-04-02T16:47:11.346Z,93540.78
2023-04-02T16:49:50.178Z,93545.44
2023-04-02T16:52:41.509Z,93545.81
2023-04-02T16:55:32.451Z,93536.97
2023-04-02T16:58:19.985Z,93554.50
2023-04-02T17:00:56.223Z,93559.09
2023-04-02T17:03:55.655Z,93560.81
2023-04-02T17:06:42.343Z,93551.34
2023-04-02T17:09:18.836Z,93565.44
2023-04-02T17:11:56.602Z,93567.34
2023-04-02T17:14:32.703Z,93567.06
2023-04-02T17:17:06.145Z,93570.06
2023-04-02T17:19:35.706Z,93574.88
2023-04-02T17:22:33.110Z,93574.09
2023-04-02T17:25:05.785Z,93573.66
2023-04-02T17:27:40.513Z,93570.13
2023-04-02T17:30:38.699Z,93579.94
2023-04-02T17:33:13.609Z,93584.78
2023-04-02T17:35:58.589Z,93582.22
2023-04-02T17:38:38.652Z,93596.22
2023-04-02T17:41:19.158Z,93605.22
2023-04-02T17:44:04.729Z,93610.44
2023-04-02T17:46:40.220Z,93608.38
2023-04-02T17:49:23.028Z,93616.53
2023-04-02T17:51:58.650Z,93624.63
2023-04-02T17:54:44.507Z,93617.56
2023-04-02T17:57:36.056Z,93619.13
2023-04-02T18:00:31.040Z,93623.56
2023-04-02T18:03:35.136Z,93638.69
2023-04-02T18:06:14.224Z,93635.56
2023-04-02T18:08:57.534Z,93640.00
2023-04-02T18:11:40.964Z,93638.91
2023-04-02T18:14:35.134Z,93645.19
2023-04-02T18:17:16.852Z,93649.88
2023-04-02T18:19:55.120Z,93654.34
2023-04-02T18:22:33.872Z,93658.28
2023-04-02T18:25:24.730Z,93659.63
2023-04-02T18:28:32.304Z,93671.16
2023-04-02T18:31:08.879Z,93671.16
2023-04-02T18:34:19.782Z,93685.31
2023-04-02T18:37:04.764Z,93678.81
2023-04-02T18:39:53.643Z,93691.63
2023-04-02T18:42:47.949Z,93681.16
2023-04-02T18:45:25.921Z,93689.00
2023-04-02T18:48:08.075Z,93700.75
2023-04-02T18:50:40.973Z,93696.56
2023-04-02T18:53:14.641Z,93689.47
2023-04-02T18:55:51.319Z,93693.94
2023-04-02T18:58:28.199Z,93683.72
2023-04-02T19:00:59.195Z,93693.94
2023-04-02T19:03:34.029Z,93696.81
2023-04-02T19:06:10.203Z,93697.31
2023-04-02T19:08:47.200Z,93695.75
2023-04-02T19:11:28.476Z,93699.69
2023-04-02T19:14:01.002Z,93697.06
2023-04-02T19:16:57.491Z,93699.69
2023-04-02T19:19:31.901Z,93696.00
2023-04-02T19:22:17.866Z,93698.38
2023-04-02T19:25:18.001Z,93695.19
2023-04-02T19:28:03.520Z,93698.31
2023-04-02T19:30:48.452Z,93705.34
2023-04-02T19:33:34.751Z,93702.72
2023-04-02T19:36:20.957Z,93703.50
2023-04-02T19:39:05.879Z,93712.66
2023-04-02T19:42:04.358Z,93711.34
2023-04-02T19:44:32.898Z,93705.34
2023-04-02T19:47:01.402Z,93703.22
2023-04-02T19:49:34.044Z,93709.69
2023-04-02T19:52:02.500Z,93709.16
2023-04-02T19:54:32.313Z,93734.72
2023-04-02T19:57:03.112Z,93727.91
2023-04-02T19:59:32.572Z,93728.88
2023-04-02T20:02:05.870Z,93733.56
2023-04-02T20:04:34.570Z,93737.38
2023-04-02T20:07:03.145Z,93742.16
2023-04-02T20:09:32.939Z,93730.59
2023-04-02T20:12:01.444Z,93734.50
2023-04-02T20:14:29.940Z,93737.00
2023-04-02T20:16:58.553Z,93730.03
2023-04-02T20:19:30.047Z,93733.88
2023-04-02T20:21:58.579Z,93728.63
2023-04-02T20:24:27.075Z,93735.91
2023-04-02T20:26:56.886Z,93737.25
2023-04-02T20:29:28.121Z,93737.03
2023-04-02T20:31:56.988Z,93737.84
2023-04-02T20:34:25.969Z,93740.38
2023-04-02T20:36:54.764Z,93744.31
2023-04-02T20:39:24.129Z,93734.72
2023-04-02T20:41:52.592Z,93743.25
2023-04-02T20:44:22.714Z,93744.16
2023-04-02T20:46:51.188Z,93742.00
2023-04-02T20:49:19.640Z,93748.22
2023-04-02T20:51:48.594Z,93744.59
2023-04-02T20:54:17.736Z,93744.31
2023-04-02T20:56:46.324Z,93749.50
2023-04-02T20:59:14.816Z,93750.09
2023-04-02T21:02:18.519Z,93744.03
2023-04-02T21:04:47.845Z,93751.47
2023-04-02T21:07:16.680Z,93744.78
2023-04-02T21:09:45.297Z,93756.97
2023-04-02T21:12:13.896Z,93747.34
2023-04-02T21:14:42.359Z,93761.81
2023-04-02T21:17:10.811Z,93763.28
2023-04-02T21:19:40.764Z,93769.91
2023-04-02T21:22:09.184Z,93769.44
2023-04-02T21:25:02.707Z,93760.91
2023-04-02T21:27:31.122Z,93769.44
2023-04-02T21:29:59.629Z,93763.97
2023-04-02T21:32:28.130Z,93758.47
2023-04-02T21:34:57.973Z,93765.13
2023-04-02T21:37:26.512Z,93769.56
2023-04-02T21:39:55.381Z,93773.88
2023-04-02T21:42:24.155Z,93780.41
2023-04-02T21:44:53.400Z,93777.47
2023-04-02T21:47:21.895Z,93769.94
2023-04-02T21:49:50.365Z,93766.53
2023-04-02T21:52:20.269Z,93774.34
2023-04-02T21:54:48.709Z,93775.50
2023-04-02T21:57:18.984Z,93768.47
2023-04-02T21:59:47.593Z,93779.94
2023-04-02T22:02:16.008Z,93770.78
2023-04-02T22:04:45.171Z,93778.84
2023-04-02T22:07:13.730Z,93765.84
2023-04-02T22:09:43.570Z,93772.78
2023-04-02T22:12:12.538Z,93770.16
2023-04-02T22:14:41.020Z,93768.28
2023-04-02T22:17:09.481Z,93769.38
2023-04-02T22:19:38.059Z,93773.88
2023-04-02T22:22:06.514Z,93770.47
2023-04-02T22:24:34.970Z,93779.81
2023-04-02T22:27:04.935Z,93778.03
2023-04-02T22:29:33.726Z,93772.72
2023-04-02T22:32:02.207Z,93776.75
2023-04-02T22:34:31.032Z,93779.41
2023-04-02T22:36:59.531Z,93769.75
2023-04-02T22:39:28.052Z,93774.47
2023-04-02T22:41:56.454Z,93775.56
2023-04-02T22:44:26.401Z,93776.91
2023-04-02T22:46:54.783Z,93771.16
2023-04-02T22:49:23.200Z,93775.88
2023-04-02T22:51:51.699Z,93770.06
2023-04-02T22:54:20.319Z,93781.03
2023-04-02T22:56:48.745Z,93778.38
2023-04-02T22:59:17.415Z,93769.56
2023-04-02T23:01:47.357Z,93766.91
2023-04-02T23:04:15.993Z,93780.28
2023-04-02T23:06:44.423Z,93782.31
2023-04-02T23:09:13.126Z,93787.94
2023-04-02T23:11:41.852Z,93784.25
2023-04-02T23:14:11.005Z,93783.72
2023-04-02T23:16:39.458Z,93780.06
2023-04-02T23:19:09.258Z,93778.66
2023-04-02T23:21:37.713Z,93776.78
2023-04-02T23:24:06.471Z,93773.00
2023-04-02T23:26:35.053Z,93773.28
2023-04-02T23:29:03.839Z,93771.94
2023-04-02T23:31:32.377Z,93764.97
2023-04-02T23:34:00.912Z,93770.41
2023-04-02T23:36:56.386Z,93771.16
2023-04-02T23:39:24.875Z,93778.50
2023-04-02T23:41:53.318Z,93771.16
2023-04-02T23:44:21.870Z,93771.16
2023-04-02T23:46:50.444Z,93768.97
2023-04-02T23:49:19.309Z,93765.19
2023-04-02T23:51:48.312Z,93761.47
2023-04-02T23:54:18.410Z,93758.56
2023-04-02T23:56:46.963Z,93762.38
2023-04-02T23:59:20.392Z,93750.97
